LFMV

Avignon-Caumont Airport

Avignon/Caumont, France
TAF AMD LFMV 181902Z 1819/1915 VRB03KT CAVOK TEMPO 1819/1822 4000 SHRA FEW020CB SCT030TCU PROB40 TEMPO 1819/1822 2000 TSRA BKN020CB BECMG 1908/1912 35009KT
Issued Valid From Valid To
Jul-18 @ 19:02 UTC
(3 hours ago)
Jul-18 @ 19:00 UTC
(3 hours ago)
Jul-19 @ 15:00 UTC
(in 17 hours)
Jul-18 @ 19:00 to Jul-19 @ 08:00
TAF AMD LFMV 181902Z 1819/1915 VRB03KT CAVOK
Wind Visibility Clouds Conditions
Variable at 3 knots 10,000+ meters
  • No significant clouds
Expired Click to View Jul-18 @ 19:00 to Jul-18 @ 22:00
TEMPO 1819/1822 4000 SHRA FEW020CB SCT030TCU
Visibility Clouds Conditions
4,007 meters
  • Few at 2,000' AGL
  • Scattered at 3,000' AGL
  • Rain
Expired Click to View Jul-18 @ 19:00 to Jul-18 @ 22:00
PROB40 TEMPO 1819/1822 2000 TSRA BKN020CB
Visibility Clouds Conditions
1,996 meters
  • Broken at 2,000' AGL
  • Thunderstorm
  • Rain
Becoming Jul-19 @ 08:00 to Jul-19 @ 15:00
BECMG 1908/1912 35009KT
Wind Visibility Clouds Conditions
350° at 9 knots 10,000+ meters
  • No significant clouds
TAF AMD LFMV 181902Z 1819/1915 VRB03KT CAVOK TEMPO 1819/1822 4000 SHRA FEW020CB SCT030TCU PROB40 TEMPO 1819/1822 2000 TSRA BKN020CB BECMG 1908/1912 35009KT
Issued Jul-18 @ 19:02 UTC
(3 hours ago)
Valid From Jul-18 @ 19:00 UTC
(3 hours ago)
Valid To Jul-19 @ 15:00 UTC
(in 17 hours)
Jul-18 @ 19:00 - Jul-19 @ 08:00
Wind Visibility
Variable at 3 knots 10,000+ meters
Clouds
  • No significant clouds
Conditions
Jul-18 @ 19:00 - Jul-18 @ 22:00
Clouds
  • Few at 2,000' AGL
  • Scattered at 3,000' AGL
Conditions
  • Rain
Jul-18 @ 19:00 - Jul-18 @ 22:00
Clouds
  • Broken at 2,000' AGL
Conditions
  • Thunderstorm
  • Rain
Becoming Jul-19 @ 08:00 - Jul-19 @ 15:00
Wind Visibility
350° at 9 knots 10,000+ meters
Clouds
  • No significant clouds
Conditions